Detall de PIREP

Printer-friendly versionPDF version

[2014/10/16 09:53:00]
Flight IATA:CT3236
Pilot Number:042
Company ICAO:CAT
Aircraft Type:B463/A
PAX:28
Aircraft Registration:PAX
Departing Airport: LEPA
Destination Airport: LKPR
Alternate Airport:LKTB
Online: VATSIM
Route:MEROS UN853 LUMAS UM985 SUMIR UM726 KOGOL UN871 ABABI UZ39 GOSEK
Flight Level:F330
No Slew and time accel
No pause
Crash detect
Detect pilot in Cockpit between each 30 and 45 minutes
09:53 Zero fuel Weight: 80444 Lbs, Fuel Weight: 22667 Lbs
09:53 VATSIM:LEPA 160830Z 23011KT 200V270 9999 FEW024 24/18 Q1015 NOSIG
09:53 VATSIM:LKPR 160830Z 20006KT 9999 FEW006 SCT036 13/12 Q1008 NOSIG
09:56 Parking Brakes off
10:10 Take-off
10:10 Take off Weight: 101987 Lbs
10:10 Wind: 225º @ 011 Knots Heading: 238º
10:10 POS N39º 33´ 14´´ E002º 43´ 30´´
10:10 Flaps:2 at 155 Knots
10:10 Gear Up: 154 Knots
10:11 Flaps:1 at 147 Knots
10:12 Flaps:0 at 186 Knots
10:25 Wind:291º@028 Knots Heading: 056º Ground Speed: 377 Knots Altitude 26141 ft
10:32 TOC
10:32 Fuel Weight: 18429 Lb
10:40 Wind:298º@063 Knots Heading: 001º Ground Speed: 388 Knots Altitude 32995 ft
10:55 Wind:293º@077 Knots Heading: 029º Ground Speed: 428 Knots Altitude 32942 ft
11:10 Wind:300º@079 Knots Heading: 044º Ground Speed: 437 Knots Altitude 32939 ft
11:25 Wind:299º@095 Knots Heading: 017º Ground Speed: 401 Knots Altitude 32949 ft
11:40 Wind:297º@097 Knots Heading: 042º Ground Speed: 445 Knots Altitude 33034 ft
11:55 Wind:292º@105 Knots Heading: 345º Ground Speed: 357 Knots Altitude 32939 ft
12:09 TOD
12:09 Fuel Weight: 12008 Lb
12:10 Wind:279º@058 Knots Heading: 021º Ground Speed: 421 Knots Altitude 32578 ft
12:25 Wind:274º@031 Knots Heading: 005º Ground Speed: 268 Knots Altitude 11883 ft
12:30 Flaps:1 at 209 Knots
12:33 Flaps:2 at 168 Knots
12:33 GearDown: 177 Knots
12:33 Flaps:3 at 177 Knots
12:33 Flaps:4 at 177 Knots
12:37 TouchDown:Rate -244 ft/min Speed: 114 Knots
12:37 VATSIM:LKPR 161130Z 23018KT 9999 SCT022 17/12 Q1008 NOSIG
12:37 Land
12:37 Wind:240º@015 Knots
12:37 Heading: 242º
12:37 Flight Duration: 02:27
12:37 Landing Weight: 91537 Lbs
12:37 POS N50º 06´ 38´´ E014º 15´ 19´´
12:38 Parking brakes on
12:38 Block to Block Duration: 02:42
12:38 Final Fuel: 11073 Lbls
12:38 Spent Fuel: 11593 Lbls
12:38 Flight Length: 918 NM
12:38 TOD Land Length: 128 NM

Exportar CSV

Powered by Drupal - Modified by Danger4k